Time;durP1;ratioP1;P1;durP2;ratioP2;P2;SDS_P1;SDS_P2;PMS_P1;PMS_P2;Temp;Humidity;BMP_temperature;BMP_pressure;BME280_temperature;BME280_humidity;BME280_pressure;Samples;Min_cycle;Max_cycle;Signal;HPM_P1;HPM_P2
2023/06/14 00:01:06;;;;;;;;;1.67;1.33;;;;;20.55;76.80;99994.06;5050675;28;45409;-80
2023/06/14 00:03:31;;;;;;;;;4.00;3.00;;;;;20.34;76.63;99974.13;5036888;28;45602;-79
2023/06/14 00:05:57;;;;;;;;;2.00;2.00;;;;;20.34;77.16;100003.31;5052763;28;45282;-80
2023/06/14 00:08:24;;;;;;;;;0.67;0.00;;;;;20.22;77.67;100012.38;5032169;28;45416;-80
2023/06/14 00:10:50;;;;;;;;;3.00;3.00;;;;;20.05;77.84;99974.66;5041095;28;45543;-80
2023/06/14 00:13:16;;;;;;;;;3.00;3.00;;;;;20.16;77.25;99987.75;5057277;28;45328;-79
2023/06/14 00:15:42;;;;;;;;;3.00;3.00;;;;;20.23;77.49;99998.22;5046585;28;45500;-79
2023/06/14 00:18:09;;;;;;;;;3.00;3.00;;;;;20.16;77.73;99985.97;5042267;28;45599;-79
2023/06/14 00:20:35;;;;;;;;;3.00;2.33;;;;;20.25;78.47;100004.38;5052538;28;47493;-78
2023/06/14 00:23:01;;;;;;;;;2.67;2.67;;;;;20.16;79.60;99987.75;5038669;28;45417;-79
2023/06/14 00:25:27;;;;;;;;;3.00;2.67;;;;;20.30;79.47;100019.31;5054951;28;45635;-79
2023/06/14 00:27:54;;;;;;;;;3.00;3.00;;;;;20.29;79.61;100028.16;5052513;28;45429;-79
2023/06/14 00:30:20;;;;;;;;;3.67;3.67;;;;;20.13;79.64;100004.56;5041375;28;45449;-79
2023/06/14 00:32:46;;;;;;;;;3.67;3.00;;;;;20.22;79.42;100022.97;5052382;28;45516;-78
2023/06/14 00:35:12;;;;;;;;;3.00;3.00;;;;;20.19;79.23;100007.13;5046043;28;45492;-80
2023/06/14 00:37:38;;;;;;;;;4.00;4.00;;;;;20.23;79.17;100024.75;5049529;28;45484;-80
2023/06/14 00:40:04;;;;;;;;;4.00;3.00;;;;;20.19;78.66;100008.88;5045419;28;46828;-78
2023/06/14 00:42:31;;;;;;;;;4.00;3.00;;;;;20.30;78.93;100012.22;5050087;28;45441;-80
2023/06/14 00:44:57;;;;;;;;;4.00;2.67;;;;;20.24;78.49;100005.25;5051618;28;45404;-79
2023/06/14 00:47:23;;;;;;;;;3.00;3.00;;;;;20.29;78.14;100004.28;5050237;28;45197;-79
2023/06/14 00:49:53;;;;;;;;;3.00;3.00;;;;;20.10;79.08;99974.59;5048583;28;45374;-78
2023/06/14 00:52:19;;;;;;;;;4.00;4.00;;;;;20.07;80.07;99996.72;5047785;28;45585;-80
2023/06/14 00:54:45;;;;;;;;;3.33;3.00;;;;;20.09;79.77;100010.81;5053405;28;45628;-79
2023/06/14 00:57:11;;;;;;;;;3.00;3.00;;;;;20.16;80.43;100011.63;5051203;28;45307;-80
2023/06/14 00:59:57;;;;;;;;;3.33;3.00;;;;;20.19;79.97;100004.50;5040166;28;46999;-78
2023/06/14 01:02:24;;;;;;;;;4.33;2.00;;;;;20.12;80.68;99997.53;5045894;28;45560;-79
2023/06/14 01:04:50;;;;;;;;;5.33;4.00;;;;;20.14;79.89;99992.22;5054775;28;45563;-79
2023/06/14 01:07:37;;;;;;;;;3.67;3.00;;;;;20.28;79.90;100014.03;5051416;28;45461;-79
2023/06/14 01:10:12;;;;;;;;;5.00;3.67;;;;;20.32;80.11;100023.69;5042334;28;45549;-78
2023/06/14 01:13:00;;;;;;;;;3.33;3.00;;;;;20.31;79.80;100016.63;5044404;28;45719;-79
2023/06/14 01:15:27;;;;;;;;;4.00;4.00;;;;;20.18;79.82;100007.16;5040298;28;45275;-78
2023/06/14 01:17:53;;;;;;;;;3.00;3.00;;;;;20.24;79.27;100021.16;5055004;28;45489;-79
2023/06/14 01:20:21;;;;;;;;;4.00;3.33;;;;;20.21;79.92;100023.91;5049237;28;46065;-79
2023/06/14 01:22:53;;;;;;;;;4.00;4.00;;;;;20.21;79.75;100021.25;5042937;28;45573;-80
2023/06/14 01:25:23;;;;;;;;;4.00;4.00;;;;;20.15;79.55;99999.25;5041470;28;45355;-80
2023/06/14 01:27:58;;;;;;;;;4.00;3.00;;;;;20.35;79.32;100033.34;5054215;28;45525;-80
2023/06/14 01:30:27;;;;;;;;;3.00;3.00;;;;;20.36;79.89;100043.94;5050032;28;46204;-79
2023/06/14 01:32:55;;;;;;;;;3.33;3.33;;;;;20.42;80.24;100043.84;5045390;28;45489;-78
2023/06/14 01:35:22;;;;;;;;;3.67;3.67;;;;;20.37;79.35;100026.25;5037452;28;45673;-80
2023/06/14 01:37:48;;;;;;;;;3.33;3.33;;;;;20.41;79.27;100047.41;5048959;28;45629;-79
2023/06/14 01:40:15;;;;;;;;;3.00;3.00;;;;;20.42;79.17;100046.50;5044129;28;46142;-80
2023/06/14 01:42:42;;;;;;;;;5.00;4.00;;;;;20.35;79.33;100036.00;5037626;28;45864;-79
2023/06/14 01:45:09;;;;;;;;;4.00;4.00;;;;;20.30;78.98;100022.84;5057757;28;45443;-80
2023/06/14 01:47:36;;;;;;;;;5.67;3.00;;;;;20.28;79.17;100022.00;5050849;28;45431;-79
2023/06/14 01:50:05;;;;;;;;;5.00;5.00;;;;;20.28;79.12;100032.59;5041448;28;45551;-80
2023/06/14 01:52:30;;;;;;;;;4.67;4.00;;;;;20.33;80.25;100054.59;5046747;28;45565;-79
2023/06/14 01:54:57;;;;;;;;;5.00;5.00;;;;;20.22;80.14;100032.72;5049698;28;45382;-80
2023/06/14 01:57:25;;;;;;;;;5.00;5.00;;;;;20.35;80.55;100047.53;5037423;28;45524;-79
2023/06/14 01:59:50;;;;;;;;;5.00;4.67;;;;;20.39;79.71;100049.22;5047309;28;45652;-79
2023/06/14 02:02:16;;;;;;;;;4.00;4.00;;;;;20.10;79.38;100009.06;5038150;28;45382;-78
2023/06/14 02:04:42;;;;;;;;;4.00;4.00;;;;;20.20;79.32;100029.22;5037352;28;45780;-81
2023/06/14 02:07:08;;;;;;;;;6.33;5.67;;;;;20.29;79.40;100044.09;5052527;28;45492;-80
2023/06/14 02:09:34;;;;;;;;;6.00;5.67;;;;;20.18;79.53;100031.03;5044420;28;45448;-80
2023/06/14 02:12:00;;;;;;;;;5.67;5.67;;;;;20.26;79.92;100037.06;5046103;28;45494;-80
2023/06/14 02:14:27;;;;;;;;;6.00;6.00;;;;;20.39;80.00;100050.97;5048967;28;45567;-79
2023/06/14 02:16:53;;;;;;;;;9.00;6.67;;;;;20.35;80.12;100036.91;5048072;28;45485;-80
2023/06/14 02:19:20;;;;;;;;;6.33;6.00;;;;;20.39;80.75;100041.25;5040722;28;45341;-81
2023/06/14 02:21:46;;;;;;;;;7.00;6.00;;;;;20.35;81.03;100022.75;5055166;28;45492;-75
2023/06/14 02:24:13;;;;;;;;;8.33;7.67;;;;;20.42;81.31;100033.22;5050885;28;45496;-78
2023/06/14 02:26:39;;;;;;;;;7.33;6.00;;;;;20.46;80.96;100042.88;5045875;28;45422;-80
2023/06/14 02:29:05;;;;;;;;;7.33;7.00;;;;;20.24;81.41;100004.38;5025856;28;46141;-78
2023/06/14 02:31:32;;;;;;;;;11.33;8.00;;;;;20.56;82.00;100054.19;5033863;28;45519;-78
2023/06/14 02:33:57;;;;;;;;;8.33;7.33;;;;;20.52;82.70;100046.31;5049116;28;45430;-79
2023/06/14 02:36:24;;;;;;;;;8.00;7.00;;;;;20.45;82.66;100034.94;5046085;28;45332;-80
2023/06/14 02:38:49;;;;;;;;;7.00;6.00;;;;;20.53;82.23;100040.09;5048190;28;45764;-81
2023/06/14 02:41:15;;;;;;;;;7.33;7.00;;;;;20.37;81.92;100012.97;5026849;28;45537;-80
2023/06/14 02:43:40;;;;;;;;;10.00;9.00;;;;;20.60;82.81;100044.44;5050215;28;45427;-80
2023/06/14 02:46:06;;;;;;;;;9.67;8.00;;;;;20.49;82.69;100019.84;5052091;28;45497;-81
2023/06/14 02:48:32;;;;;;;;;12.00;10.00;;;;;20.63;82.77;100050.56;5056344;28;45406;-80
2023/06/14 02:50:57;;;;;;;;;9.00;8.00;;;;;20.61;82.15;100035.53;5052408;28;45518;-81
2023/06/14 02:53:23;;;;;;;;;13.33;11.33;;;;;20.58;83.55;100047.06;5043110;28;45489;-78
2023/06/14 02:55:49;;;;;;;;;9.00;9.00;;;;;20.63;83.30;100050.56;5038438;28;45368;-79
2023/06/14 02:58:15;;;;;;;;;13.00;9.33;;;;;20.59;82.76;100034.69;5055365;28;45469;-78
2023/06/14 03:00:42;;;;;;;;;10.00;8.67;;;;;20.37;83.74;100016.53;5042381;28;45513;-79
2023/06/14 03:03:15;;;;;;;;;13.33;9.00;;;;;20.57;83.05;100042.69;5048911;28;45441;-79
2023/06/14 03:05:47;;;;;;;;;12.33;9.67;;;;;20.55;82.79;100046.25;5039301;28;45513;-79
2023/06/14 03:08:19;;;;;;;;;9.00;8.00;;;;;20.59;82.99;100069.19;5021198;28;47346;-78
2023/06/14 03:10:46;;;;;;;;;9.67;9.67;;;;;20.58;83.20;100065.66;5039476;28;45362;-79
2023/06/14 03:13:12;;;;;;;;;11.33;9.00;;;;;20.59;82.92;100064.78;5049514;28;45478;-79
2023/06/14 03:15:38;;;;;;;;;9.67;9.33;;;;;20.60;82.42;100061.22;5046432;28;45502;-79
2023/06/14 03:18:04;;;;;;;;;9.00;9.00;;;;;20.53;82.24;100054.25;5040713;28;46051;-78
2023/06/14 03:20:32;;;;;;;;;9.33;8.67;;;;;20.49;83.01;100047.22;5044306;28;46067;-78
2023/06/14 03:22:59;;;;;;;;;11.00;9.67;;;;;20.62;82.57;100061.19;5060488;28;45319;-78
2023/06/14 03:25:25;;;;;;;;;9.00;9.00;;;;;20.57;82.19;100060.38;5041511;28;45481;-79
2023/06/14 03:27:51;;;;;;;;;10.00;9.67;;;;;20.56;82.32;100066.59;5058528;28;46479;-78
2023/06/14 03:30:17;;;;;;;;;11.00;11.00;;;;;20.42;83.11;100067.72;5060013;28;45498;-78
2023/06/14 03:32:43;;;;;;;;;12.67;10.67;;;;;20.50;82.38;100075.53;5059368;28;45572;-78
2023/06/14 03:35:10;;;;;;;;;8.00;6.67;;;;;20.55;82.79;100083.41;5048167;28;45430;-79
2023/06/14 03:37:35;;;;;;;;;8.67;6.67;;;;;20.30;82.51;100038.75;5054783;28;46108;-79
2023/06/14 03:40:01;;;;;;;;;11.33;10.00;;;;;20.31;82.73;100052.88;5041016;28;45397;-79
2023/06/14 03:42:27;;;;;;;;;8.67;7.00;;;;;20.32;82.42;100055.53;5059349;28;45241;-79
2023/06/14 03:44:52;;;;;;;;;11.00;9.67;;;;;20.39;83.08;100066.88;5048603;28;45269;-79
2023/06/14 03:47:18;;;;;;;;;9.67;8.67;;;;;20.15;83.60;100055.81;5045442;28;46141;-78
2023/06/14 03:49:43;;;;;;;;;10.00;10.00;;;;;20.24;84.06;100106.03;5059788;28;45504;-77
2023/06/14 03:52:09;;;;;;;;;10.33;8.67;;;;;20.13;84.08;100075.28;5043812;28;45632;-79
2023/06/14 03:54:35;;;;;;;;;9.67;8.00;;;;;20.27;82.88;100087.44;5040597;28;45351;-78
2023/06/14 03:57:00;;;;;;;;;10.00;9.00;;;;;20.31;83.37;100074.09;5059915;28;45897;-78
2023/06/14 03:59:26;;;;;;;;;12.33;9.67;;;;;20.37;83.37;100101.41;5041244;28;45441;-81
2023/06/14 04:01:53;;;;;;;;;8.67;8.33;;;;;20.19;82.73;100069.88;5060144;28;45346;-79
2023/06/14 04:04:18;;;;;;;;;10.00;8.00;;;;;20.33;83.51;100097.03;5059151;28;45382;-79
2023/06/14 04:06:44;;;;;;;;;6.33;5.33;;;;;20.32;82.65;100097.09;5059659;28;45615;-78
2023/06/14 04:09:09;;;;;;;;;8.67;7.33;;;;;20.17;83.05;100099.06;5051251;28;45414;-78
2023/06/14 04:11:35;;;;;;;;;10.67;8.67;;;;;20.27;83.36;100106.00;5039760;28;45462;-78
2023/06/14 04:14:02;;;;;;;;;9.33;8.00;;;;;20.26;83.14;100116.63;5041175;28;45509;-78
2023/06/14 04:16:28;;;;;;;;;10.00;8.00;;;;;20.20;82.31;100100.81;5039303;28;45562;-78
2023/06/14 04:18:55;;;;;;;;;8.33;7.67;;;;;20.31;82.63;100120.06;5039265;28;45284;-79
2023/06/14 04:21:20;;;;;;;;;11.33;9.67;;;;;20.19;83.34;100121.19;5036810;28;45479;-79
2023/06/14 04:23:46;;;;;;;;;9.00;7.67;;;;;20.19;82.99;100117.63;5039637;28;45478;-79
2023/06/14 04:26:12;;;;;;;;;9.00;8.00;;;;;20.26;82.33;100124.59;5045224;28;47956;-77
2023/06/14 04:28:40;;;;;;;;;9.67;8.33;;;;;20.03;83.48;100115.25;5058180;28;45484;-79
2023/06/14 04:31:08;;;;;;;;;10.33;8.00;;;;;19.95;83.29;100105.63;5049738;28;45455;-78
2023/06/14 04:33:42;;;;;;;;;9.00;9.00;;;;;20.06;84.35;100132.88;5039275;28;45326;-78
2023/06/14 04:36:11;;;;;;;;;7.67;7.67;;;;;20.11;83.40;100143.41;5038008;28;46369;-79
2023/06/14 04:38:37;;;;;;;;;8.33;8.33;;;;;20.13;83.40;100131.84;5038303;28;45854;-78
2023/06/14 04:41:03;;;;;;;;;12.33;8.67;;;;;20.18;83.08;100123.84;5053833;28;45393;-78
2023/06/14 04:43:28;;;;;;;;;8.00;8.00;;;;;20.35;82.53;100143.03;5024411;28;45597;-78
2023/06/14 04:45:55;;;;;;;;;9.00;8.00;;;;;20.31;82.67;100148.38;5049515;28;45493;-79
2023/06/14 04:48:22;;;;;;;;;8.00;8.00;;;;;20.21;82.38;100127.34;5050338;28;45615;-78
2023/06/14 04:50:52;;;;;;;;;9.00;8.00;;;;;20.37;82.60;100157.13;5036962;28;45605;-79
2023/06/14 04:53:21;;;;;;;;;9.33;7.33;;;;;20.36;81.83;100147.41;5051004;28;45508;-79
2023/06/14 04:55:46;;;;;;;;;10.00;9.33;;;;;20.47;81.74;100160.47;5058062;28;46075;-78
2023/06/14 04:58:12;;;;;;;;;13.00;10.00;;;;;20.41;81.68;100160.59;5041944;28;45360;-78
2023/06/14 05:00:38;;;;;;;;;11.33;9.00;;;;;20.42;81.54;100165.88;5039734;28;45617;-78
2023/06/14 05:03:05;;;;;;;;;9.33;6.67;;;;;20.42;81.29;100173.84;5059122;28;45439;-79
2023/06/14 05:05:31;;;;;;;;;12.00;8.00;;;;;20.42;81.87;100171.19;5057574;28;45524;-78
2023/06/14 05:07:57;;;;;;;;;9.33;8.00;;;;;20.48;80.91;100177.31;5038541;28;45518;-79
2023/06/14 05:10:24;;;;;;;;;12.33;8.00;;;;;20.44;81.70;100180.00;5037841;28;45565;-79
2023/06/14 05:12:50;;;;;;;;;9.33;8.33;;;;;20.37;81.15;100162.44;5038515;28;45389;-78
2023/06/14 05:15:15;;;;;;;;;11.33;9.00;;;;;20.39;81.80;100173.00;5045350;28;46312;-79
2023/06/14 05:17:42;;;;;;;;;7.33;5.00;;;;;20.34;81.11;100174.88;5057404;28;45405;-78
2023/06/14 05:20:10;;;;;;;;;10.67;9.00;;;;;20.34;81.15;100170.44;5042648;28;45407;-79
2023/06/14 05:22:35;;;;;;;;;8.00;7.67;;;;;20.39;81.29;100162.38;5040108;28;45861;-79
2023/06/14 05:25:02;;;;;;;;;11.00;9.67;;;;;20.54;80.40;100191.31;5052175;28;45505;-77
2023/06/14 05:27:27;;;;;;;;;9.33;7.67;;;;;20.55;80.54;100195.75;5036279;28;45707;-78
2023/06/14 05:29:55;;;;;;;;;12.67;11.33;;;;;20.46;80.96;100180.84;5052578;28;45220;-78
2023/06/14 05:32:21;;;;;;;;;13.00;8.00;;;;;20.56;80.52;100193.97;5038133;28;45494;-78
2023/06/14 05:34:46;;;;;;;;;11.33;10.00;;;;;20.52;79.82;100179.88;5051225;28;45433;-79
2023/06/14 05:37:13;;;;;;;;;8.67;7.67;;;;;20.59;80.06;100186.88;5040620;28;45186;-78
2023/06/14 05:39:38;;;;;;;;;8.67;8.67;;;;;20.51;80.38;100161.31;5052021;28;45497;-79
2023/06/14 05:42:04;;;;;;;;;10.00;8.67;;;;;20.56;79.76;100172.72;5039128;28;45360;-80
2023/06/14 05:44:29;;;;;;;;;8.33;7.00;;;;;20.64;79.24;100192.09;5039769;28;47825;-80
2023/06/14 05:46:55;;;;;;;;;15.00;10.00;;;;;20.55;79.48;100181.59;5041054;28;45319;-79
2023/06/14 05:49:20;;;;;;;;;7.00;7.00;;;;;20.54;79.64;100166.56;5037531;28;45797;-80
2023/06/14 05:51:46;;;;;;;;;9.33;9.33;;;;;20.72;79.01;100192.81;5037773;28;45539;-80
2023/06/14 05:54:12;;;;;;;;;11.00;10.33;;;;;20.81;78.57;100197.97;5056265;28;45451;-78
2023/06/14 05:56:37;;;;;;;;;11.33;9.00;;;;;20.79;78.75;100198.88;5038077;28;45571;-80
2023/06/14 05:59:03;;;;;;;;;10.33;8.00;;;;;20.71;78.67;100185.78;5035971;28;45399;-79
2023/06/14 06:01:28;;;;;;;;;9.67;9.00;;;;;20.85;78.37;100199.69;5037753;28;46293;-80
2023/06/14 06:03:54;;;;;;;;;11.33;8.00;;;;;20.93;78.61;100201.31;5044426;28;46717;-79
2023/06/14 06:06:20;;;;;;;;;9.00;8.00;;;;;20.88;77.65;100193.44;5019210;28;45474;-79
2023/06/14 06:08:46;;;;;;;;;8.67;7.67;;;;;20.95;77.40;100196.84;5048524;28;45359;-79
2023/06/14 06:11:11;;;;;;;;;8.33;8.00;;;;;20.88;77.12;100184.59;5041130;28;45584;-80
2023/06/14 06:13:38;;;;;;;;;10.00;8.00;;;;;21.05;77.14;100214.38;5055141;28;47562;-80
2023/06/14 06:16:04;;;;;;;;;7.67;7.67;;;;;20.96;76.46;100206.56;5056663;28;45350;-80
2023/06/14 06:18:30;;;;;;;;;8.00;8.00;;;;;20.93;76.67;100212.81;5056570;28;45396;-78
2023/06/14 06:20:55;;;;;;;;;12.33;12.00;;;;;21.03;76.75;100225.03;5038586;28;45875;-78
2023/06/14 06:23:21;;;;;;;;;8.00;8.00;;;;;20.99;75.83;100209.16;5056273;28;46380;-78
2023/06/14 06:25:46;;;;;;;;;6.00;6.00;;;;;21.15;75.64;100215.97;5038444;28;46104;-77
2023/06/14 06:28:12;;;;;;;;;8.33;7.67;;;;;21.23;75.04;100216.69;5051429;28;45509;-78
2023/06/14 06:30:38;;;;;;;;;7.33;6.33;;;;;21.22;74.59;100219.38;5043008;28;45353;-78
2023/06/14 06:33:04;;;;;;;;;7.00;6.00;;;;;21.27;74.36;100233.44;5045588;28;46143;-78
2023/06/14 06:35:30;;;;;;;;;8.00;7.00;;;;;21.06;73.83;100194.88;5033046;28;45454;-79
2023/06/14 06:37:56;;;;;;;;;6.00;6.00;;;;;21.38;73.96;100250.03;5040279;28;45394;-80
2023/06/14 06:40:22;;;;;;;;;9.00;6.67;;;;;21.28;73.95;100237.84;5035366;28;45605;-79
2023/06/14 06:42:48;;;;;;;;;9.00;6.67;;;;;21.32;73.08;100231.56;5047549;28;46034;-78
2023/06/14 06:45:13;;;;;;;;;7.67;6.67;;;;;21.33;73.27;100241.28;5034016;28;45512;-78
2023/06/14 06:47:39;;;;;;;;;7.00;6.00;;;;;21.43;72.90;100260.63;5045965;28;45502;-80
2023/06/14 06:50:06;;;;;;;;;9.00;7.00;;;;;21.44;73.24;100262.38;5055929;28;45482;-80
2023/06/14 06:52:31;;;;;;;;;5.00;4.67;;;;;21.48;72.64;100258.75;5032407;28;46901;-80
2023/06/14 06:54:57;;;;;;;;;9.33;9.00;;;;;21.48;72.95;100266.72;5049043;28;45514;-78
2023/06/14 06:57:23;;;;;;;;;9.33;6.67;;;;;21.41;72.28;100267.72;5047978;28;45383;-78
2023/06/14 06:59:49;;;;;;;;;8.00;6.00;;;;;21.38;72.67;100265.13;5037537;28;45657;-78
2023/06/14 07:02:15;;;;;;;;;6.67;5.67;;;;;21.29;72.56;100252.00;5049078;28;45429;-77
2023/06/14 07:04:41;;;;;;;;;2.33;2.33;;;;;21.50;72.46;100277.31;5048403;28;45394;-84
2023/06/14 07:07:06;;;;;;;;;6.67;6.00;;;;;21.49;72.13;100283.53;5047921;28;45307;-83
2023/06/14 07:09:32;;;;;;;;;9.00;6.00;;;;;21.42;72.17;100280.97;5053529;28;45337;-83
2023/06/14 07:11:57;;;;;;;;;6.33;4.33;;;;;21.38;72.23;100278.41;5051827;28;45753;-79
2023/06/14 07:14:24;;;;;;;;;7.00;6.33;;;;;21.23;71.75;100260.97;5045253;28;45279;-82
2023/06/14 07:16:49;;;;;;;;;6.00;5.00;;;;;21.45;71.30;100294.22;5044095;28;45466;-79
2023/06/14 07:19:15;;;;;;;;;5.00;5.00;;;;;21.26;71.98;100274.19;5051582;28;45586;-76
2023/06/14 07:21:41;;;;;;;;;7.33;5.33;;;;;21.18;71.31;100284.94;5034829;28;47189;-78
2023/06/14 07:24:07;;;;;;;;;6.67;5.67;;;;;21.33;71.60;100301.50;5034800;28;45481;-82
2023/06/14 07:26:33;;;;;;;;;5.67;5.67;;;;;21.30;70.84;100297.13;5048048;28;45415;-76
2023/06/14 07:28:59;;;;;;;;;7.67;7.00;;;;;21.34;71.11;100300.63;5039031;28;45481;-77
2023/06/14 07:31:24;;;;;;;;;6.67;5.33;;;;;21.38;71.28;100312.94;5052068;28;45543;-80
2023/06/14 07:33:50;;;;;;;;;7.00;6.00;;;;;21.33;70.94;100312.13;5038948;28;45525;-81
2023/06/14 07:36:17;;;;;;;;;4.00;3.33;;;;;21.31;71.00;100320.16;5037826;28;45460;-80
2023/06/14 07:38:43;;;;;;;;;6.67;6.00;;;;;21.39;70.99;100330.66;5055411;28;45269;-80
2023/06/14 07:41:08;;;;;;;;;9.00;6.00;;;;;21.41;70.92;100335.03;5051711;28;47167;-80
2023/06/14 07:43:34;;;;;;;;;6.00;5.33;;;;;21.45;71.25;100322.59;5042819;28;45419;-81
2023/06/14 07:46:00;;;;;;;;;5.67;5.67;;;;;21.65;70.68;100336.38;5043376;28;45441;-78
2023/06/14 07:48:26;;;;;;;;;6.33;5.33;;;;;21.67;70.77;100346.13;5051546;28;45569;-84
2023/06/14 07:50:51;;;;;;;;;7.33;6.00;;;;;21.59;70.53;100336.50;5017430;28;45637;-82
2023/06/14 07:53:17;;;;;;;;;6.33;5.33;;;;;21.67;70.78;100348.78;5035933;28;45510;-78
2023/06/14 07:55:43;;;;;;;;;5.33;5.33;;;;;21.89;70.59;100360.75;5042688;28;45366;-79
2023/06/14 07:58:09;;;;;;;;;8.00;7.00;;;;;22.01;69.80;100365.81;5025142;28;45485;-81
2023/06/14 08:00:34;;;;;;;;;7.33;7.00;;;;;22.10;69.92;100358.56;5041655;28;47890;-79
2023/06/14 08:03:00;;;;;;;;;8.00;6.33;;;;;22.26;68.93;100370.66;5037667;28;45415;-81
2023/06/14 08:05:27;;;;;;;;;6.00;5.33;;;;;22.28;68.62;100367.97;5028890;28;46253;-83
2023/06/14 08:07:53;;;;;;;;;6.00;5.67;;;;;22.33;68.56;100363.44;5042176;28;45375;-83
2023/06/14 08:10:19;;;;;;;;;6.00;6.00;;;;;22.28;68.10;100342.22;5051676;28;45576;-79
2023/06/14 08:12:44;;;;;;;;;5.00;5.00;;;;;22.24;66.97;100360.06;5039038;28;45387;-81
2023/06/14 08:15:10;;;;;;;;;5.00;5.00;;;;;22.29;68.02;100375.06;5052613;28;45511;-83
2023/06/14 08:17:36;;;;;;;;;7.67;6.00;;;;;22.37;68.11;100370.44;5059292;28;45381;-81
2023/06/14 08:20:03;;;;;;;;;9.33;9.00;;;;;22.66;67.10;100372.47;5037012;28;45486;-80
2023/06/14 08:22:32;;;;;;;;;5.33;5.33;;;;;22.58;65.86;100370.00;5040001;28;45742;-79
2023/06/14 08:24:58;;;;;;;;;6.00;5.67;;;;;22.70;66.51;100360.84;5045401;28;45437;-81
2023/06/14 08:27:23;;;;;;;;;6.33;6.00;;;;;22.78;65.68;100377.53;5038060;28;45396;-81
2023/06/14 08:29:49;;;;;;;;;7.00;5.00;;;;;22.72;66.45;100364.34;5052724;28;46094;-79
2023/06/14 08:32:15;;;;;;;;;6.33;5.67;;;;;22.91;65.37;100385.22;5047316;28;45393;-82
2023/06/14 08:34:41;;;;;;;;;4.67;4.67;;;;;22.85;65.13;100364.91;5045459;28;45421;-79
2023/06/14 08:37:07;;;;;;;;;6.33;5.00;;;;;23.14;65.04;100396.25;5021191;28;45691;-81
2023/06/14 08:39:33;;;;;;;;;4.33;4.33;;;;;23.16;64.63;100370.44;5049432;28;46989;-77
2023/06/14 08:42:02;;;;;;;;;5.00;5.00;;;;;23.26;63.58;100360.41;5040716;28;45438;-79
2023/06/14 08:44:28;;;;;;;;;7.00;6.33;;;;;23.46;63.63;100378.56;5058225;28;45590;-83
2023/06/14 08:46:57;;;;;;;;;3.00;1.67;;;;;23.67;63.31;100376.22;5047125;28;45461;-78
2023/06/14 08:49:25;;;;;;;;;6.33;5.67;;;;;23.86;62.38;100377.53;5038785;28;45545;-82
2023/06/14 08:51:58;;;;;;;;;5.33;5.00;;;;;23.93;61.91;100379.09;5041150;28;45386;-83
2023/06/14 08:54:27;;;;;;;;;6.67;5.00;;;;;23.99;62.12;100389.63;5048972;28;45382;-83
2023/06/14 08:56:57;;;;;;;;;6.67;5.33;;;;;23.95;61.21;100395.94;5038467;28;45582;-79
2023/06/14 08:59:26;;;;;;;;;5.33;5.00;;;;;23.85;61.62;100397.09;5029339;28;46881;-81
2023/06/14 09:01:54;;;;;;;;;8.00;6.33;;;;;23.85;61.71;100397.09;5057207;28;45431;-82
2023/06/14 09:04:21;;;;;;;;;5.33;5.33;;;;;23.75;61.50;100407.09;5038309;28;45484;-79
2023/06/14 09:06:52;;;;;;;;;4.33;4.33;;;;;23.69;61.02;100398.41;5037664;28;45299;-84
2023/06/14 09:09:22;;;;;;;;;5.00;5.00;;;;;23.61;61.66;100402.13;5048213;28;46439;-81
2023/06/14 09:11:50;;;;;;;;;4.00;3.33;;;;;23.52;61.68;100402.41;5041836;28;45513;-80
2023/06/14 09:14:15;;;;;;;;;4.00;4.00;;;;;23.36;61.68;100393.91;5053337;28;45513;-83
2023/06/14 09:16:41;;;;;;;;;5.67;5.00;;;;;23.48;61.88;100410.53;5045164;28;45380;-83
2023/06/14 09:19:07;;;;;;;;;3.33;3.33;;;;;23.37;61.81;100392.97;5046081;28;45503;-78
2023/06/14 09:21:35;;;;;;;;;4.00;4.00;;;;;23.41;61.84;100421.31;5053336;28;45359;-79
2023/06/14 09:24:01;;;;;;;;;5.00;4.67;;;;;23.34;61.91;100421.53;5038076;28;45347;-81
2023/06/14 09:26:27;;;;;;;;;4.00;3.33;;;;;23.25;61.57;100427.06;5037736;28;45378;-77
2023/06/14 09:28:55;;;;;;;;;4.00;4.00;;;;;23.25;61.33;100438.59;5037553;28;46694;-86
2023/06/14 09:31:21;;;;;;;;;5.67;5.67;;;;;23.21;59.93;100429.78;5025852;28;45798;-77
2023/06/14 09:33:49;;;;;;;;;5.00;4.00;;;;;23.26;60.13;100428.81;5055698;28;45401;-80
2023/06/14 09:36:23;;;;;;;;;4.33;4.00;;;;;23.38;60.72;100434.72;5050754;28;45261;-80
2023/06/14 09:39:00;;;;;;;;;4.00;4.00;;;;;23.57;60.07;100436.94;5043742;28;45394;-77
2023/06/14 09:41:32;;;;;;;;;6.00;5.00;;;;;23.65;59.61;100436.75;5055166;28;45566;-75
2023/06/14 09:44:00;;;;;;;;;6.33;5.00;;;;;23.44;59.51;100412.38;5040272;28;45473;-84
2023/06/14 09:46:27;;;;;;;;;4.33;4.00;;;;;23.60;59.97;100440.41;5037843;28;45652;-83
2023/06/14 09:48:53;;;;;;;;;5.33;5.00;;;;;23.43;59.26;100445.28;5051998;28;45516;-85
2023/06/14 09:51:22;;;;;;;;;6.00;5.00;;;;;23.39;59.40;100447.13;5058126;28;45434;-83
2023/06/14 09:53:49;;;;;;;;;4.33;4.00;;;;;23.51;59.80;100450.41;5058544;28;45255;-84
2023/06/14 09:56:37;;;;;;;;;5.67;5.00;;;;;23.36;59.76;100425.91;5056927;28;45360;-85
2023/06/14 09:59:06;;;;;;;;;6.67;6.67;;;;;23.54;60.18;100442.34;5058052;28;46263;-85
2023/06/14 10:01:33;;;;;;;;;4.67;4.00;;;;;23.50;59.78;100444.22;5056421;28;45480;-84
2023/06/14 10:04:03;;;;;;;;;4.00;4.00;;;;;23.39;60.60;100446.25;5037657;28;45374;-85
2023/06/14 10:06:30;;;;;;;;;4.67;4.67;;;;;23.46;60.51;100461.22;5036130;28;45514;-84
2023/06/14 10:08:59;;;;;;;;;8.67;5.00;;;;;23.60;60.32;100458.19;5030867;28;47133;-85
2023/06/14 10:11:29;;;;;;;;;5.00;5.00;;;;;23.76;59.53;100458.69;5039487;28;45308;-81
2023/06/14 10:13:58;;;;;;;;;6.00;5.00;;;;;23.59;59.73;100445.75;5037199;28;45414;-85
2023/06/14 10:16:32;;;;;;;;;5.67;5.00;;;;;23.50;59.59;100468.22;5046754;28;45501;-80
2023/06/14 10:19:28;;;;;;;;;3.00;3.00;;;;;23.53;60.15;100467.25;5040763;28;46197;-83
2023/06/14 10:22:24;;;;;;;;;3.67;3.00;;;;;23.37;60.10;100464.94;5042855;28;45349;-81
2023/06/14 10:24:50;;;;;;;;;1.67;1.67;;;;;23.33;59.25;100467.75;5038888;28;45489;-85
2023/06/14 10:27:23;;;;;;;;;3.00;3.00;;;;;23.40;60.19;100459.56;5037555;28;45325;-85
2023/06/14 10:29:57;;;;;;;;;6.00;4.67;;;;;23.65;59.26;100458.06;5037014;28;45417;-85
2023/06/14 10:32:24;;;;;;;;;4.33;4.00;;;;;23.86;58.31;100457.56;5036854;28;45540;-81
2023/06/14 10:35:06;;;;;;;;;4.67;3.33;;;;;23.91;58.21;100452.97;5026060;28;45458;-84
2023/06/14 10:37:33;;;;;;;;;4.00;3.67;;;;;23.93;58.75;100453.78;5043525;28;45569;-85
2023/06/14 10:39:58;;;;;;;;;7.67;5.00;;;;;24.04;58.58;100445.50;5056498;28;45525;-85
2023/06/14 10:42:36;;;;;;;;;3.67;3.67;;;;;24.14;58.35;100451.47;5057439;28;45422;-85
2023/06/14 10:45:02;;;;;;;;;5.00;4.00;;;;;24.18;58.59;100466.47;5040541;28;45284;-80
2023/06/14 10:47:34;;;;;;;;;4.67;4.00;;;;;24.21;58.58;100450.38;5036561;28;45499;-84
2023/06/14 10:50:06;;;;;;;;;3.67;3.67;;;;;24.56;57.41;100461.88;5036578;28;45533;-85
2023/06/14 10:52:38;;;;;;;;;3.00;3.00;;;;;24.58;57.43;100457.38;5018982;28;45495;-86
2023/06/14 10:55:12;;;;;;;;;4.67;4.67;;;;;24.85;56.98;100462.78;5037233;28;45300;-85
2023/06/14 10:57:56;;;;;;;;;8.00;6.67;;;;;24.63;56.26;100433.19;5037467;28;45260;-82
2023/06/14 11:00:25;;;;;;;;;5.00;4.00;;;;;24.84;56.50;100447.69;5036711;28;46230;-85
2023/06/14 11:03:28;;;;;;;;;5.00;5.00;;;;;24.78;55.87;100446.97;5036914;28;45458;-84
2023/06/14 11:05:55;;;;;;;;;4.33;4.00;;;;;24.88;55.72;100441.34;5036991;28;45492;-82
2023/06/14 11:08:33;;;;;;;;;4.33;4.33;;;;;24.94;55.73;100438.47;5037061;28;45414;-83
2023/06/14 11:11:00;;;;;;;;;4.00;4.00;;;;;25.07;55.36;100442.53;5036450;28;45346;-85
2023/06/14 11:13:26;;;;;;;;;5.00;4.00;;;;;25.09;55.18;100432.66;5036739;28;45493;-82
2023/06/14 11:15:57;;;;;;;;;3.00;3.00;;;;;25.45;53.78;100450.25;5036957;28;45307;-81
2023/06/14 11:18:29;;;;;;;;;4.00;3.67;;;;;25.49;53.59;100439.41;5041785;28;45509;-77
2023/06/14 11:20:54;;;;;;;;;4.67;4.00;;;;;25.49;53.08;100433.19;5056541;28;45345;-78
2023/06/14 11:23:22;;;;;;;;;4.00;4.00;;;;;25.61;52.09;100432.75;5056542;28;45241;-80
2023/06/14 11:25:51;;;;;;;;;3.00;3.00;;;;;25.40;51.59;100383.53;5057099;28;45532;-76